createdAt,value
2022-09-23T00:00:11.517Z,96636.72
2022-09-23T00:00:44.603Z,96634.06
2022-09-23T00:01:16.631Z,96633.78
2022-09-23T00:01:48.913Z,96630.00
2022-09-23T00:02:20.841Z,96630.00
2022-09-23T00:02:52.802Z,96635.31
2022-09-23T00:03:24.874Z,96633.59
2022-09-23T00:03:59.107Z,96635.94
2022-09-23T00:04:31.186Z,96628.13
2022-09-23T00:05:03.285Z,96631.72
2022-09-23T00:05:35.666Z,96635.94
2022-09-23T00:06:13.624Z,96640.34
2022-09-23T00:06:45.717Z,96637.22
2022-09-23T00:07:17.978Z,96632.50
2022-09-23T00:07:49.792Z,96635.50
2022-09-23T00:08:22.807Z,96630.19
2022-09-23T00:08:55.005Z,96635.97
2022-09-23T00:09:27.797Z,96631.28
2022-09-23T00:09:59.721Z,96632.50
2022-09-23T00:10:31.932Z,96631.44
2022-09-23T00:11:06.484Z,96633.16
2022-09-23T00:11:38.469Z,96632.81
2022-09-23T00:12:10.368Z,96635.97
2022-09-23T00:12:42.310Z,96631.41
2022-09-23T00:13:14.113Z,96636.72
2022-09-23T00:13:48.918Z,96630.78
2022-09-23T00:14:21.690Z,96639.69
2022-09-23T00:14:53.557Z,96637.38
2022-09-23T00:15:26.603Z,96635.03
2022-09-23T00:16:02.848Z,96634.88
2022-09-23T00:16:35.267Z,96633.28
2022-09-23T00:17:07.324Z,96634.22
2022-09-23T00:17:40.623Z,96630.47
2022-09-23T00:18:12.470Z,96642.22
2022-09-23T00:18:44.487Z,96635.63
2022-09-23T00:19:16.352Z,96642.69
2022-09-23T00:19:48.369Z,96631.56
2022-09-23T00:20:20.385Z,96634.88
2022-09-23T00:20:53.044Z,96631.41
2022-09-23T00:21:25.260Z,96637.69
2022-09-23T00:21:57.230Z,96636.56
2022-09-23T00:22:29.107Z,96635.47
2022-09-23T00:23:01.440Z,96630.78
2022-09-23T00:23:33.288Z,96636.88
2022-09-23T00:24:05.352Z,96634.22
2022-09-23T00:24:37.510Z,96630.63
2022-09-23T00:25:11.222Z,96636.88
2022-09-23T00:25:42.991Z,96630.47
2022-09-23T00:26:16.739Z,96627.34
2022-09-23T00:26:48.970Z,96629.84
2022-09-23T00:27:21.557Z,96625.47
2022-09-23T00:27:54.175Z,96629.53
2022-09-23T00:28:26.189Z,96626.41
2022-09-23T00:28:58.427Z,96627.34
2022-09-23T00:29:31.500Z,96629.38
2022-09-23T00:30:08.790Z,96626.72
2022-09-23T00:30:42.012Z,96628.59
2022-09-23T00:31:20.030Z,96629.84
2022-09-23T00:31:51.900Z,96626.69
2022-09-23T00:32:23.766Z,96627.19
2022-09-23T00:32:56.938Z,96625.78
2022-09-23T00:33:29.869Z,96626.69
2022-09-23T00:34:01.999Z,96632.50
2022-09-23T00:34:33.991Z,96620.13
2022-09-23T00:35:06.360Z,96628.59
2022-09-23T00:35:38.709Z,96627.66
2022-09-23T00:36:15.653Z,96627.50
2022-09-23T00:36:47.539Z,96625.75
2022-09-23T00:37:20.079Z,96620.91
2022-09-23T00:37:52.272Z,96625.00
2022-09-23T00:38:24.184Z,96621.53
2022-09-23T00:39:14.470Z,96613.72
2022-09-23T00:39:46.684Z,96623.72
2022-09-23T00:40:18.813Z,96620.16
2022-09-23T00:40:51.227Z,96616.53
2022-09-23T00:41:23.556Z,96614.81
2022-09-23T00:41:56.135Z,96614.81
2022-09-23T00:42:27.988Z,96620.13
2022-09-23T00:43:00.185Z,96619.47
2022-09-23T00:43:48.909Z,96612.16
2022-09-23T00:44:50.110Z,96615.91
2022-09-23T00:45:22.351Z,96610.28
2022-09-23T00:45:54.976Z,96614.97
2022-09-23T00:46:36.958Z,96618.41
2022-09-23T00:47:44.128Z,96610.88
2022-09-23T00:48:20.475Z,96613.25
2022-09-23T00:49:00.233Z,96614.13
2022-09-23T00:49:32.131Z,96617.53
2022-09-23T00:50:15.051Z,96615.84
2022-09-23T00:50:54.263Z,96606.16
2022-09-23T00:51:33.575Z,96612.44
2022-09-23T00:52:14.569Z,96606.81
2022-09-23T00:52:49.164Z,96607.72
2022-09-23T00:53:26.585Z,96607.63
2022-09-23T00:53:58.857Z,96607.25
2022-09-23T00:54:31.101Z,96602.91
2022-09-23T00:55:07.650Z,96611.47
2022-09-23T00:55:46.062Z,96604.78
2022-09-23T00:56:20.165Z,96606.91
2022-09-23T00:56:52.255Z,96602.06
2022-09-23T00:57:26.137Z,96599.72
2022-09-23T00:58:01.224Z,96601.94
2022-09-23T00:58:36.150Z,96604.25
2022-09-23T00:59:10.782Z,96605.03
2022-09-23T00:59:44.250Z,96608.31
2022-09-23T01:00:16.194Z,96605.19
2022-09-23T01:00:48.125Z,96602.53
2022-09-23T01:01:21.449Z,96603.44
2022-09-23T01:01:56.172Z,96605.47
2022-09-23T01:02:28.401Z,96600.63
2022-09-23T01:03:01.755Z,96603.78
2022-09-23T01:03:34.312Z,96598.78
2022-09-23T01:04:07.946Z,96602.38
2022-09-23T01:04:40.751Z,96602.03
2022-09-23T01:05:13.813Z,96602.22
2022-09-23T01:05:47.148Z,96598.63
2022-09-23T01:06:19.218Z,96595.50
2022-09-23T01:06:51.353Z,96597.59
2022-09-23T01:07:23.354Z,96590.03
2022-09-23T01:07:57.582Z,96597.22
2022-09-23T01:08:29.677Z,96597.34
2022-09-23T01:09:01.856Z,96592.03
2022-09-23T01:09:34.283Z,96597.34
2022-09-23T01:10:08.040Z,96595.44
2022-09-23T01:10:52.091Z,96593.25
2022-09-23T01:11:47.374Z,96591.84
2022-09-23T01:12:34.191Z,96601.84
2022-09-23T01:13:15.413Z,96602.16
2022-09-23T01:13:47.364Z,96597.13
2022-09-23T01:14:37.528Z,96594.19
2022-09-23T01:15:32.521Z,96593.72
2022-09-23T01:16:23.408Z,96590.63
2022-09-23T01:17:09.437Z,96596.91
2022-09-23T01:18:08.358Z,96586.63
2022-09-23T01:19:09.418Z,96591.88
2022-09-23T01:20:15.442Z,96593.28
2022-09-23T01:21:16.738Z,96588.63
2022-09-23T01:21:57.981Z,96584.91
2022-09-23T01:23:00.115Z,96583.66
2022-09-23T01:23:41.469Z,96579.84
2022-09-23T01:24:30.257Z,96580.00
2022-09-23T01:25:23.372Z,96583.91
2022-09-23T01:26:08.106Z,96591.72
2022-09-23T01:27:01.002Z,96587.38
2022-09-23T01:28:07.946Z,96585.47
2022-09-23T01:29:09.280Z,96581.72
2022-09-23T01:29:59.817Z,96584.22
2022-09-23T01:30:37.849Z,96585.84
2022-09-23T01:31:22.572Z,96583.38
2022-09-23T01:32:16.149Z,96589.44
2022-09-23T01:33:11.178Z,96582.84
2022-09-23T01:33:56.640Z,96592.44
2022-09-23T01:34:31.440Z,96585.41
2022-09-23T01:35:38.592Z,96582.94
2022-09-23T01:36:27.170Z,96582.44
2022-09-23T01:37:20.872Z,96586.03
2022-09-23T01:38:17.124Z,96585.56
2022-09-23T01:39:07.922Z,96582.91
2022-09-23T01:39:52.067Z,96582.66
2022-09-23T01:40:40.262Z,96576.81
2022-09-23T01:41:31.491Z,96575.13
2022-09-23T01:42:17.438Z,96571.50
2022-09-23T01:43:15.665Z,96579.94
2022-09-23T01:44:04.143Z,96573.81
2022-09-23T01:44:49.875Z,96573.22
2022-09-23T01:45:37.485Z,96573.56
2022-09-23T01:46:18.513Z,96573.97
2022-09-23T01:47:17.525Z,96574.78
2022-09-23T01:48:10.513Z,96579.13
2022-09-23T01:48:47.264Z,96578.97
2022-09-23T01:49:30.903Z,96574.38
2022-09-23T01:50:26.908Z,96576.06
2022-09-23T01:51:20.765Z,96583.72
2022-09-23T01:51:59.863Z,96580.56
2022-09-23T01:52:41.886Z,96584.03
2022-09-23T01:53:24.103Z,96579.19
2022-09-23T01:54:15.963Z,96579.25
2022-09-23T01:55:27.150Z,96573.69
2022-09-23T01:56:05.289Z,96574.69
2022-09-23T01:56:47.538Z,96575.28
2022-09-23T01:57:26.533Z,96576.69
2022-09-23T01:58:23.595Z,96574.03
2022-09-23T01:58:55.452Z,96572.13
2022-09-23T01:59:47.137Z,96577.63
2022-09-23T02:00:24.156Z,96574.63
2022-09-23T02:01:07.724Z,96567.75
2022-09-23T02:01:45.336Z,96566.50
2022-09-23T02:02:44.298Z,96567.22
2022-09-23T02:03:33.111Z,96568.94
2022-09-23T02:04:15.447Z,96571.75
2022-09-23T02:05:00.562Z,96567.84
2022-09-23T02:05:45.005Z,96567.06
2022-09-23T02:06:24.765Z,96568.44
2022-09-23T02:07:06.158Z,96559.91
2022-09-23T02:07:55.614Z,96571.81
2022-09-23T02:08:30.755Z,96564.41
2022-09-23T02:09:08.140Z,96566.28
2022-09-23T02:09:43.986Z,96560.50
2022-09-23T02:10:24.131Z,96556.59
2022-09-23T02:11:04.597Z,96564.94
2022-09-23T02:11:37.827Z,96557.53
2022-09-23T02:12:17.296Z,96556.91
2022-09-23T02:12:52.746Z,96559.25
2022-09-23T02:13:43.135Z,96561.91
2022-09-23T02:14:38.816Z,96551.94
2022-09-23T02:15:16.389Z,96563.31
2022-09-23T02:15:55.671Z,96553.94
2022-09-23T02:16:39.528Z,96554.41
2022-09-23T02:17:17.257Z,96564.41
2022-09-23T02:17:59.169Z,96559.53
2022-09-23T02:19:00.140Z,96559.38
2022-09-23T02:19:45.794Z,96554.38
2022-09-23T02:20:24.348Z,96562.38
2022-09-23T02:21:02.714Z,96562.09
2022-09-23T02:21:38.405Z,96565.69
2022-09-23T02:22:22.723Z,96565.41
2022-09-23T02:23:01.456Z,96565.97
2022-09-23T02:23:40.125Z,96568.47
2022-09-23T02:24:28.003Z,96570.16
2022-09-23T02:25:00.056Z,96572.69
2022-09-23T02:25:47.721Z,96572.19
2022-09-23T02:26:27.743Z,96562.34
2022-09-23T02:27:22.165Z,96571.41
2022-09-23T02:27:57.161Z,96574.09
2022-09-23T02:28:41.184Z,96572.75
2022-09-23T02:29:26.966Z,96574.06
2022-09-23T02:30:13.481Z,96564.72
2022-09-23T02:30:56.250Z,96560.16
2022-09-23T02:31:30.827Z,96567.63
2022-09-23T02:32:23.772Z,96570.28
2022-09-23T02:33:08.594Z,96561.31
2022-09-23T02:33:53.330Z,96563.13
2022-09-23T02:34:43.000Z,96557.78
2022-09-23T02:35:32.868Z,96568.03
2022-09-23T02:36:20.628Z,96566.44
2022-09-23T02:37:21.002Z,96568.97
2022-09-23T02:38:09.862Z,96564.19
2022-09-23T02:38:51.155Z,96567.16
2022-09-23T02:39:28.627Z,96568.41
2022-09-23T02:40:12.704Z,96571.19
2022-09-23T02:40:58.842Z,96564.91
2022-09-23T02:41:39.082Z,96570.09
2022-09-23T02:42:20.289Z,96570.72
2022-09-23T02:43:33.868Z,96566.41
2022-09-23T02:44:18.546Z,96566.69
2022-09-23T02:44:50.753Z,96568.06
2022-09-23T02:45:22.786Z,96566.13
2022-09-23T02:45:56.214Z,96570.34
2022-09-23T02:46:30.082Z,96567.69
2022-09-23T02:47:02.341Z,96560.97
2022-09-23T02:47:39.671Z,96566.94
2022-09-23T02:48:21.338Z,96570.59
2022-09-23T02:49:24.006Z,96563.09
2022-09-23T02:49:58.283Z,96563.50
2022-09-23T02:50:31.580Z,96566.13
2022-09-23T02:51:04.496Z,96570.31
2022-09-23T02:51:38.198Z,96563.63
2022-09-23T02:52:13.675Z,96567.38
2022-09-23T02:52:46.939Z,96561.94
2022-09-23T02:53:19.067Z,96566.28
2022-09-23T02:53:52.164Z,96568.22
2022-09-23T02:54:29.375Z,96566.81
2022-09-23T02:55:01.378Z,96565.97
2022-09-23T02:55:33.546Z,96569.84
2022-09-23T02:56:21.044Z,96560.22
2022-09-23T02:56:53.309Z,96565.19
2022-09-23T02:57:25.511Z,96565.81
2022-09-23T02:58:01.053Z,96561.53
2022-09-23T02:58:34.373Z,96569.63
2022-09-23T02:59:08.926Z,96563.06
2022-09-23T02:59:41.537Z,96563.00
2022-09-23T03:00:14.013Z,96564.13
2022-09-23T03:01:21.741Z,96567.84
2022-09-23T03:02:04.569Z,96562.75
2022-09-23T03:02:36.449Z,96565.41
2022-09-23T03:03:20.571Z,96563.03
2022-09-23T03:04:31.535Z,96562.88
2022-09-23T03:05:31.529Z,96562.59
2022-09-23T03:06:25.959Z,96562.66
2022-09-23T03:07:19.168Z,96554.13
2022-09-23T03:08:12.946Z,96554.84
2022-09-23T03:09:02.285Z,96562.03
2022-09-23T03:09:40.374Z,96561.69
2022-09-23T03:10:22.597Z,96556.25
2022-09-23T03:11:10.588Z,96553.13
2022-09-23T03:11:50.954Z,96555.94
2022-09-23T03:12:38.998Z,96554.69
2022-09-23T03:13:17.123Z,96558.88
2022-09-23T03:14:16.941Z,96550.31
2022-09-23T03:14:54.489Z,96549.31
2022-09-23T03:15:38.717Z,96556.94
2022-09-23T03:16:13.326Z,96551.63
2022-09-23T03:16:58.259Z,96549.94
2022-09-23T03:17:54.934Z,96550.19
2022-09-23T03:18:45.393Z,96553.44
2022-09-23T03:19:33.858Z,96552.25
2022-09-23T03:20:22.425Z,96544.75
2022-09-23T03:21:33.873Z,96547.69
2022-09-23T03:22:07.537Z,96552.13
2022-09-23T03:22:49.563Z,96549.31
2022-09-23T03:23:26.295Z,96544.72
2022-09-23T03:24:07.385Z,96554.53
2022-09-23T03:24:44.838Z,96543.28
2022-09-23T03:25:21.875Z,96543.03
2022-09-23T03:25:58.154Z,96548.81
2022-09-23T03:26:34.806Z,96548.16
2022-09-23T03:27:13.901Z,96538.28
2022-09-23T03:27:45.907Z,96548.09
2022-09-23T03:28:21.959Z,96547.97
2022-09-23T03:28:54.599Z,96548.59
2022-09-23T03:29:27.058Z,96550.03
2022-09-23T03:29:59.560Z,96547.97
2022-09-23T03:30:35.627Z,96549.06
2022-09-23T03:31:08.368Z,96543.63
2022-09-23T03:31:42.513Z,96540.75
2022-09-23T03:32:17.344Z,96537.66
2022-09-23T03:32:51.356Z,96539.06
2022-09-23T03:33:28.904Z,96542.66
2022-09-23T03:34:06.131Z,96545.50
2022-09-23T03:34:41.985Z,96540.50
2022-09-23T03:35:14.721Z,96545.31
2022-09-23T03:36:11.594Z,96539.84
2022-09-23T03:36:53.732Z,96538.44
2022-09-23T03:37:37.669Z,96544.13
2022-09-23T03:38:16.802Z,96548.47
2022-09-23T03:38:52.822Z,96542.63
2022-09-23T03:39:33.150Z,96542.44
2022-09-23T03:40:15.836Z,96544.59
2022-09-23T03:40:51.036Z,96543.22
2022-09-23T03:41:39.252Z,96546.94
2022-09-23T03:42:17.927Z,96549.66
2022-09-23T03:42:50.220Z,96540.38
2022-09-23T03:43:22.253Z,96537.66
2022-09-23T03:43:57.751Z,96542.19
2022-09-23T03:44:30.318Z,96547.97
2022-09-23T03:45:09.297Z,96541.91
2022-09-23T03:45:42.652Z,96543.16
2022-09-23T03:46:18.396Z,96541.28
2022-09-23T03:46:50.571Z,96542.25
2022-09-23T03:47:26.095Z,96545.56
2022-09-23T03:47:58.404Z,96539.75
2022-09-23T03:48:30.165Z,96548.81
2022-09-23T03:49:35.179Z,96547.13
2022-09-23T03:50:07.465Z,96541.56
2022-09-23T03:50:39.333Z,96543.50
2022-09-23T03:51:21.996Z,96538.06
2022-09-23T03:51:55.428Z,96546.41
2022-09-23T03:52:27.667Z,96549.81
2022-09-23T03:52:59.524Z,96540.69
2022-09-23T03:53:31.432Z,96538.81
2022-09-23T03:54:03.195Z,96542.38
2022-09-23T03:54:35.087Z,96543.16
2022-09-23T03:55:08.082Z,96540.69
2022-09-23T03:55:40.567Z,96538.50
2022-09-23T03:56:12.430Z,96540.56
2022-09-23T03:56:44.253Z,96546.16
2022-09-23T03:57:16.153Z,96540.19
2022-09-23T03:57:48.797Z,96539.06
2022-09-23T03:58:20.634Z,96538.44
2022-09-23T03:58:52.533Z,96537.84
2022-09-23T03:59:26.024Z,96539.13
2022-09-23T03:59:57.951Z,96537.53
2022-09-23T04:00:29.841Z,96536.38
2022-09-23T04:01:01.775Z,96534.38
2022-09-23T04:01:33.647Z,96529.53
2022-09-23T04:02:07.700Z,96538.44
2022-09-23T04:03:12.035Z,96533.06
2022-09-23T04:03:44.389Z,96536.75
2022-09-23T04:04:16.585Z,96540.25
2022-09-23T04:04:48.555Z,96534.88
2022-09-23T04:05:20.389Z,96544.06
2022-09-23T04:05:52.337Z,96537.78
2022-09-23T04:06:24.171Z,96538.28
2022-09-23T04:06:56.614Z,96536.59
2022-09-23T04:07:28.449Z,96534.25
2022-09-23T04:08:00.484Z,96535.34
2022-09-23T04:08:32.338Z,96537.66
2022-09-23T04:09:04.323Z,96539.84
2022-09-23T04:09:36.892Z,96534.84
2022-09-23T04:10:10.056Z,96535.34
2022-09-23T04:10:42.279Z,96533.94
2022-09-23T04:11:14.349Z,96537.31
2022-09-23T04:11:47.977Z,96536.34
2022-09-23T04:12:19.981Z,96535.00
2022-09-23T04:12:52.079Z,96533.28
2022-09-23T04:13:24.011Z,96537.91
2022-09-23T04:13:56.762Z,96527.50
2022-09-23T04:14:28.652Z,96531.97
2022-09-23T04:15:00.511Z,96534.19
2022-09-23T04:15:32.336Z,96529.34
2022-09-23T04:16:04.388Z,96534.53
2022-09-23T04:16:36.387Z,96536.03
2022-09-23T04:17:08.421Z,96533.41
2022-09-23T04:17:40.242Z,96531.84
2022-09-23T04:18:12.026Z,96537.00
2022-09-23T04:18:43.825Z,96532.22
2022-09-23T04:19:16.333Z,96540.63
2022-09-23T04:19:48.161Z,96534.63
2022-09-23T04:20:20.666Z,96536.66
2022-09-23T04:20:57.697Z,96538.16
2022-09-23T04:21:31.071Z,96546.66
2022-09-23T04:22:03.775Z,96535.69
2022-09-23T04:22:37.715Z,96542.38
2022-09-23T04:23:09.728Z,96540.56
2022-09-23T04:23:41.723Z,96542.25
2022-09-23T04:24:14.691Z,96539.72
2022-09-23T04:24:46.592Z,96544.47
2022-09-23T04:25:18.474Z,96542.09
2022-09-23T04:25:50.400Z,96541.38
2022-09-23T04:26:22.316Z,96542.75
2022-09-23T04:26:55.407Z,96534.72
2022-09-23T04:27:27.224Z,96543.59
2022-09-23T04:27:59.021Z,96537.00
2022-09-23T04:28:30.932Z,96546.53
2022-09-23T04:29:04.929Z,96537.97
2022-09-23T04:29:36.859Z,96547.59
2022-09-23T04:30:09.160Z,96546.28
2022-09-23T04:30:43.750Z,96535.91
2022-09-23T04:31:15.617Z,96543.63
2022-09-23T04:31:48.641Z,96535.34
2022-09-23T04:32:20.572Z,96538.75
2022-09-23T04:32:53.439Z,96547.41
2022-09-23T04:33:25.836Z,96535.63
2022-09-23T04:33:58.155Z,96541.81
2022-09-23T04:34:30.006Z,96546.28
2022-09-23T04:35:01.909Z,96535.81
2022-09-23T04:35:36.696Z,96540.94
2022-09-23T04:36:11.846Z,96538.09
2022-09-23T04:36:45.298Z,96544.00
2022-09-23T04:37:17.145Z,96539.19
2022-09-23T04:37:49.146Z,96541.94
2022-09-23T04:38:22.000Z,96540.25
2022-09-23T04:38:53.857Z,96538.66
2022-09-23T04:39:25.708Z,96538.44
2022-09-23T04:39:57.621Z,96546.19
2022-09-23T04:40:29.520Z,96539.00
2022-09-23T04:41:01.528Z,96545.41
2022-09-23T04:41:33.452Z,96545.81
2022-09-23T04:42:05.448Z,96547.00
2022-09-23T04:42:37.276Z,96544.00
2022-09-23T04:43:12.942Z,96547.63
2022-09-23T04:43:46.105Z,96545.63
2022-09-23T04:44:18.825Z,96539.72
2022-09-23T04:44:50.636Z,96542.81
2022-09-23T04:45:22.600Z,96541.44
2022-09-23T04:46:02.144Z,96542.56
2022-09-23T04:46:34.655Z,96538.56
2022-09-23T04:47:06.622Z,96534.66
2022-09-23T04:47:38.558Z,96545.28
2022-09-23T04:48:12.092Z,96536.25
2022-09-23T04:48:44.539Z,96541.00
2022-09-23T04:49:16.625Z,96539.66
2022-09-23T04:49:48.681Z,96539.63
2022-09-23T04:50:20.695Z,96539.91
2022-09-23T04:50:52.736Z,96540.50
2022-09-23T04:51:26.564Z,96540.34
2022-09-23T04:51:58.464Z,96537.63
2022-09-23T04:52:31.299Z,96535.47
2022-09-23T04:53:04.550Z,96535.38
2022-09-23T04:53:38.595Z,96541.31
2022-09-23T04:54:12.665Z,96537.38
2022-09-23T04:54:44.430Z,96540.94
2022-09-23T04:55:16.352Z,96541.06
2022-09-23T04:55:48.214Z,96541.84
2022-09-23T04:56:26.244Z,96539.38
2022-09-23T04:56:58.043Z,96540.28
2022-09-23T04:57:29.927Z,96532.44
2022-09-23T04:58:01.688Z,96539.19
2022-09-23T04:58:34.519Z,96542.94
2022-09-23T04:59:07.048Z,96541.56
2022-09-23T04:59:39.136Z,96539.06
2022-09-23T05:00:12.465Z,96542.31
2022-09-23T05:00:44.760Z,96541.84
2022-09-23T05:01:28.060Z,96537.78
2022-09-23T05:01:59.923Z,96539.84
2022-09-23T05:02:32.105Z,96543.53
2022-09-23T05:03:04.162Z,96546.53
2022-09-23T05:03:36.323Z,96542.69
2022-09-23T05:04:13.530Z,96547.16
2022-09-23T05:04:45.311Z,96548.25
2022-09-23T05:05:23.299Z,96541.19
2022-09-23T05:05:59.863Z,96538.81
2022-09-23T05:06:34.542Z,96543.59
2022-09-23T05:07:06.590Z,96544.25
2022-09-23T05:07:38.912Z,96542.75
2022-09-23T05:08:10.696Z,96540.38
2022-09-23T05:08:54.560Z,96548.03
2022-09-23T05:09:26.516Z,96546.78
2022-09-23T05:09:58.300Z,96544.41
2022-09-23T05:10:30.115Z,96548.84
2022-09-23T05:11:04.968Z,96544.69
2022-09-23T05:11:36.751Z,96553.41
2022-09-23T05:12:08.651Z,96547.50
2022-09-23T05:12:40.500Z,96549.19
2022-09-23T05:13:12.357Z,96553.28
2022-09-23T05:13:46.413Z,96548.00
2022-09-23T05:14:18.587Z,96549.06
2022-09-23T05:14:50.640Z,96550.63
2022-09-23T05:15:22.406Z,96552.19
2022-09-23T05:16:01.247Z,96546.53
2022-09-23T05:16:33.263Z,96552.75
2022-09-23T05:17:06.045Z,96547.75
2022-09-23T05:17:37.951Z,96546.88
2022-09-23T05:18:09.859Z,96547.03
2022-09-23T05:18:43.882Z,96547.81
2022-09-23T05:19:15.657Z,96542.31
2022-09-23T05:19:47.506Z,96545.47
2022-09-23T05:20:19.260Z,96548.41
2022-09-23T05:20:55.652Z,96543.94
2022-09-23T05:21:32.212Z,96542.97
2022-09-23T05:22:05.312Z,96544.53
2022-09-23T05:22:37.747Z,96544.22
2022-09-23T05:23:09.609Z,96540.28
2022-09-23T05:23:42.619Z,96548.03
2022-09-23T05:24:15.441Z,96545.22
2022-09-23T05:24:47.232Z,96545.88
2022-09-23T05:25:19.033Z,96539.91
2022-09-23T05:26:02.040Z,96545.88
2022-09-23T05:26:33.839Z,96543.28
2022-09-23T05:27:07.784Z,96544.56
2022-09-23T05:27:39.638Z,96545.41
2022-09-23T05:28:11.526Z,96546.41
2022-09-23T05:28:43.639Z,96541.91
2022-09-23T05:29:15.445Z,96547.13
2022-09-23T05:29:47.628Z,96543.41
2022-09-23T05:30:19.647Z,96543.88
2022-09-23T05:30:51.596Z,96545.16
2022-09-23T05:31:25.958Z,96552.19
2022-09-23T05:31:57.907Z,96546.59
2022-09-23T05:32:29.878Z,96537.63
2022-09-23T05:33:02.742Z,96543.88
2022-09-23T05:33:36.335Z,96546.66
2022-09-23T05:34:08.278Z,96539.88
2022-09-23T05:34:40.189Z,96542.84
2022-09-23T05:35:50.809Z,96543.53
2022-09-23T05:36:23.729Z,96542.34
2022-09-23T05:36:55.575Z,96546.13
2022-09-23T05:37:27.348Z,96544.03
2022-09-23T05:37:59.168Z,96549.31
2022-09-23T05:38:31.945Z,96544.00
2022-09-23T05:39:04.189Z,96543.50
2022-09-23T05:39:36.713Z,96545.06
2022-09-23T05:40:08.942Z,96545.25
2022-09-23T05:40:40.799Z,96548.03
2022-09-23T05:41:13.693Z,96537.34
2022-09-23T05:41:45.844Z,96545.59
2022-09-23T05:42:18.236Z,96541.22
2022-09-23T05:42:52.428Z,96542.66
2022-09-23T05:43:24.839Z,96544.72
2022-09-23T05:43:57.250Z,96541.28
2022-09-23T05:44:29.040Z,96544.72
2022-09-23T05:45:00.922Z,96545.34
2022-09-23T05:45:33.216Z,96547.22
2022-09-23T05:46:19.634Z,96541.78
2022-09-23T05:46:51.677Z,96546.81
2022-09-23T05:47:23.509Z,96543.66
2022-09-23T05:47:55.367Z,96542.53
2022-09-23T05:48:27.154Z,96539.25
2022-09-23T05:49:02.890Z,96539.13
2022-09-23T05:49:57.982Z,96541.94
2022-09-23T05:50:28.354Z,96542.09
2022-09-23T05:51:00.675Z,96541.84
2022-09-23T05:51:34.727Z,96541.22
2022-09-23T05:52:06.573Z,96545.13
2022-09-23T05:52:38.301Z,96545.44
2022-09-23T05:53:10.120Z,96543.25
2022-09-23T05:53:45.419Z,96553.88
2022-09-23T05:54:17.206Z,96544.69
2022-09-23T05:54:49.893Z,96542.94
2022-09-23T05:55:21.700Z,96550.34
2022-09-23T05:55:54.543Z,96554.09
2022-09-23T05:56:28.247Z,96556.00
2022-09-23T05:57:02.693Z,96548.19
2022-09-23T05:57:36.699Z,96553.78
2022-09-23T05:58:08.578Z,96549.28
2022-09-23T05:58:40.628Z,96540.94
2022-09-23T05:59:12.602Z,96552.94
2022-09-23T05:59:47.645Z,96556.47
2022-09-23T06:00:19.410Z,96553.38
2022-09-23T06:00:52.108Z,96555.19
2022-09-23T06:01:27.229Z,96547.75
2022-09-23T06:01:59.866Z,96548.72
2022-09-23T06:02:31.711Z,96551.56
2022-09-23T06:03:05.038Z,96543.09
2022-09-23T06:03:37.040Z,96552.84
2022-09-23T06:04:12.715Z,96547.69
2022-09-23T06:04:44.589Z,96549.84
2022-09-23T06:05:16.418Z,96553.72
2022-09-23T06:05:48.478Z,96550.03
2022-09-23T06:06:24.736Z,96547.84
2022-09-23T06:07:00.274Z,96540.16
2022-09-23T06:07:34.699Z,96541.72
2022-09-23T06:08:07.376Z,96532.72
2022-09-23T06:08:39.627Z,96533.50
2022-09-23T06:09:13.942Z,96539.50
2022-09-23T06:09:45.855Z,96541.25
2022-09-23T06:10:17.663Z,96539.41
2022-09-23T06:10:54.456Z,96541.03
2022-09-23T06:11:29.830Z,96534.06
2022-09-23T06:12:01.953Z,96538.47
2022-09-23T06:12:35.251Z,96538.25
2022-09-23T06:13:07.367Z,96543.78
2022-09-23T06:13:39.964Z,96536.56
2022-09-23T06:14:14.695Z,96538.44
2022-09-23T06:14:46.645Z,96543.94
2022-09-23T06:15:18.715Z,96534.56
2022-09-23T06:15:50.631Z,96537.84
2022-09-23T06:16:22.618Z,96542.50
2022-09-23T06:16:54.505Z,96534.69
2022-09-23T06:17:26.280Z,96537.03
2022-09-23T06:17:58.635Z,96540.69
2022-09-23T06:18:30.415Z,96530.06
2022-09-23T06:19:06.588Z,96541.88
2022-09-23T06:19:38.733Z,96539.72
2022-09-23T06:20:10.798Z,96541.69
2022-09-23T06:20:42.654Z,96544.16
2022-09-23T06:21:16.437Z,96548.09
2022-09-23T06:21:49.726Z,96534.31
2022-09-23T06:22:24.847Z,96534.50
2022-09-23T06:23:09.954Z,96538.22
2022-09-23T06:23:43.837Z,96541.22
2022-09-23T06:24:19.120Z,96526.66
2022-09-23T06:24:53.203Z,96535.31
2022-09-23T06:25:25.035Z,96535.75
2022-09-23T06:26:16.424Z,96543.75
2022-09-23T06:26:48.372Z,96536.97
2022-09-23T06:27:20.226Z,96538.50
2022-09-23T06:27:55.966Z,96537.97
2022-09-23T06:28:32.977Z,96539.44
2022-09-23T06:29:12.049Z,96533.91
2022-09-23T06:29:43.936Z,96534.47
2022-09-23T06:30:17.308Z,96532.69
2022-09-23T06:30:49.912Z,96538.94
2022-09-23T06:31:21.686Z,96533.84
2022-09-23T06:31:53.657Z,96532.91
2022-09-23T06:32:25.877Z,96532.53
2022-09-23T06:32:58.243Z,96535.47
2022-09-23T06:33:36.721Z,96533.44
2022-09-23T06:34:14.485Z,96537.16
2022-09-23T06:34:51.690Z,96532.78
2022-09-23T06:35:27.803Z,96529.66
2022-09-23T06:36:01.063Z,96529.53
2022-09-23T06:36:42.705Z,96525.75
2022-09-23T06:37:20.300Z,96533.63
2022-09-23T06:37:53.726Z,96529.81
2022-09-23T06:38:26.961Z,96534.66
2022-09-23T06:38:58.820Z,96531.25
2022-09-23T06:39:31.033Z,96534.34
2022-09-23T06:40:02.921Z,96539.84
2022-09-23T06:40:35.500Z,96532.50
2022-09-23T06:41:07.588Z,96529.97
2022-09-23T06:42:06.325Z,96534.31
2022-09-23T06:42:38.325Z,96531.53
2022-09-23T06:43:10.138Z,96530.69
2022-09-23T06:43:42.020Z,96530.19
2022-09-23T06:44:14.922Z,96524.44
2022-09-23T06:44:46.678Z,96529.34
2022-09-23T06:45:18.442Z,96526.56
2022-09-23T06:45:55.987Z,96534.34
2022-09-23T06:46:27.942Z,96527.69
2022-09-23T06:46:59.757Z,96526.00
2022-09-23T06:47:31.520Z,96533.72
2022-09-23T06:48:08.345Z,96529.13
2022-09-23T06:48:45.399Z,96531.78
2022-09-23T06:49:18.249Z,96527.84
2022-09-23T06:49:51.608Z,96527.34
2022-09-23T06:50:25.751Z,96530.31
2022-09-23T06:51:05.212Z,96530.25
2022-09-23T06:51:36.925Z,96532.38
2022-09-23T06:52:09.074Z,96533.69
2022-09-23T06:52:41.087Z,96518.81
2022-09-23T06:53:12.830Z,96527.28
2022-09-23T06:53:46.198Z,96522.91
2022-09-23T06:54:18.092Z,96529.56
2022-09-23T06:54:49.980Z,96530.84
2022-09-23T06:55:27.909Z,96533.72
2022-09-23T06:56:05.864Z,96530.88
2022-09-23T06:56:39.721Z,96525.66
2022-09-23T06:57:11.828Z,96529.81
2022-09-23T06:57:44.623Z,96529.69
2022-09-23T06:58:16.456Z,96535.00
2022-09-23T06:58:48.763Z,96532.38
2022-09-23T06:59:20.509Z,96528.56
2022-09-23T06:59:52.182Z,96529.34
2022-09-23T07:00:25.780Z,96531.69
2022-09-23T07:01:09.322Z,96529.13
2022-09-23T07:01:41.675Z,96533.03
2022-09-23T07:02:14.178Z,96525.25
2022-09-23T07:02:46.510Z,96522.81
2022-09-23T07:03:18.460Z,96532.41
2022-09-23T07:03:50.195Z,96526.03
2022-09-23T07:04:24.114Z,96534.59
2022-09-23T07:04:59.102Z,96529.72
2022-09-23T07:05:30.868Z,96522.38
2022-09-23T07:06:03.230Z,96530.16
2022-09-23T07:06:35.256Z,96523.47
2022-09-23T07:07:06.983Z,96530.84
2022-09-23T07:07:39.388Z,96526.81
2022-09-23T07:08:11.143Z,96525.50
2022-09-23T07:08:44.965Z,96529.06
2022-09-23T07:09:16.819Z,96531.25
2022-09-23T07:09:48.768Z,96533.06
2022-09-23T07:10:20.457Z,96533.63
2022-09-23T07:10:59.545Z,96536.41
2022-09-23T07:11:31.248Z,96532.84